sensor_id;sensor_type;location;lat;lon;timestamp;pressure;altitude;pressure_sealevel;temperature;humidity
46756;BME280;32506;52.826;-1.192;2023-03-13T00:01:47;98462.09;;;11.69;65.91
46756;BME280;32506;52.826;-1.192;2023-03-13T00:04:13;98449.78;;;11.68;65.38
46756;BME280;32506;52.826;-1.192;2023-03-13T00:06:39;98448.72;;;11.69;65.72
46756;BME280;32506;52.826;-1.192;2023-03-13T00:09:07;98435.88;;;11.71;66.00
46756;BME280;32506;52.826;-1.192;2023-03-13T00:11:33;98434.00;;;11.71;66.20
46756;BME280;32506;52.826;-1.192;2023-03-13T00:14:00;98434.78;;;11.72;65.76
46756;BME280;32506;52.826;-1.192;2023-03-13T00:16:26;98453.25;;;11.73;65.62
46756;BME280;32506;52.826;-1.192;2023-03-13T00:18:53;98437.75;;;11.75;65.22
46756;BME280;32506;52.826;-1.192;2023-03-13T00:21:22;98434.78;;;11.77;65.73
46756;BME280;32506;52.826;-1.192;2023-03-13T00:23:48;98436.38;;;11.78;65.47
46756;BME280;32506;52.826;-1.192;2023-03-13T00:26:16;98428.09;;;11.80;65.45
46756;BME280;32506;52.826;-1.192;2023-03-13T00:28:43;98443.88;;;11.81;65.32
46756;BME280;32506;52.826;-1.192;2023-03-13T00:31:17;98436.38;;;11.83;65.47
46756;BME280;32506;52.826;-1.192;2023-03-13T00:33:47;98434.50;;;11.84;65.48
46756;BME280;32506;52.826;-1.192;2023-03-13T00:36:18;98438.50;;;11.86;65.25
46756;BME280;32506;52.826;-1.192;2023-03-13T00:38:44;98431.00;;;11.88;65.40
46756;BME280;32506;52.826;-1.192;2023-03-13T00:41:14;98422.69;;;11.90;65.49
46756;BME280;32506;52.826;-1.192;2023-03-13T00:43:41;98425.09;;;11.91;65.42
46756;BME280;32506;52.826;-1.192;2023-03-13T00:46:08;98400.47;;;11.95;65.28
46756;BME280;32506;52.826;-1.192;2023-03-13T00:48:34;98394.06;;;11.96;65.46
46756;BME280;32506;52.826;-1.192;2023-03-13T00:51:01;98385.75;;;11.97;65.70
46756;BME280;32506;52.826;-1.192;2023-03-13T00:53:27;98383.63;;;11.99;65.35
46756;BME280;32506;52.826;-1.192;2023-03-13T00:55:56;98371.81;;;12.00;65.79
46756;BME280;32506;52.826;-1.192;2023-03-13T00:58:23;98368.84;;;12.02;65.43
46756;BME280;32506;52.826;-1.192;2023-03-13T01:00:49;98388.91;;;12.04;65.29
46756;BME280;32506;52.826;-1.192;2023-03-13T01:03:15;98390.53;;;12.05;65.55
46756;BME280;32506;52.826;-1.192;2023-03-13T01:05:41;98376.06;;;12.06;65.79
46756;BME280;32506;52.826;-1.192;2023-03-13T01:08:06;98372.31;;;12.07;65.96
46756;BME280;32506;52.826;-1.192;2023-03-13T01:10:31;98366.69;;;12.09;65.88
46756;BME280;32506;52.826;-1.192;2023-03-13T01:12:57;98362.13;;;12.09;65.85
46756;BME280;32506;52.826;-1.192;2023-03-13T01:15:22;98361.06;;;12.11;66.00
46756;BME280;32506;52.826;-1.192;2023-03-13T01:17:48;98358.91;;;12.13;66.16
46756;BME280;32506;52.826;-1.192;2023-03-13T01:20:14;98349.00;;;12.13;66.24
46756;BME280;32506;52.826;-1.192;2023-03-13T01:22:39;98358.63;;;12.14;66.21
46756;BME280;32506;52.826;-1.192;2023-03-13T01:25:05;98359.94;;;12.17;66.45
46756;BME280;32506;52.826;-1.192;2023-03-13T01:27:31;98374.91;;;12.18;66.78
46756;BME280;32506;52.826;-1.192;2023-03-13T01:29:56;98355.09;;;12.19;66.89
46756;BME280;32506;52.826;-1.192;2023-03-13T01:32:22;98329.41;;;12.18;67.05
46756;BME280;32506;52.826;-1.192;2023-03-13T01:34:47;98300.75;;;12.18;67.45
46756;BME280;32506;52.826;-1.192;2023-03-13T01:37:13;98285.47;;;12.19;67.17
46756;BME280;32506;52.826;-1.192;2023-03-13T01:39:39;98279.84;;;12.20;67.65
46756;BME280;32506;52.826;-1.192;2023-03-13T01:42:07;98278.78;;;12.21;67.57
46756;BME280;32506;52.826;-1.192;2023-03-13T01:47:17;98295.63;;;12.22;68.38
46756;BME280;32506;52.826;-1.192;2023-03-13T01:49:43;98287.59;;;12.22;68.20
46756;BME280;32506;52.826;-1.192;2023-03-13T01:52:24;98251.72;;;12.23;68.50
46756;BME280;32506;52.826;-1.192;2023-03-13T01:57:24;98216.09;;;12.22;68.65
46756;BME280;32506;52.826;-1.192;2023-03-13T02:00:26;98203.22;;;12.24;68.74
46756;BME280;32506;52.826;-1.192;2023-03-13T02:02:56;98214.22;;;12.23;68.96
46756;BME280;32506;52.826;-1.192;2023-03-13T02:05:24;98196.28;;;12.23;68.77
46756;BME280;32506;52.826;-1.192;2023-03-13T02:07:56;98208.84;;;12.23;68.62
46756;BME280;32506;52.826;-1.192;2023-03-13T02:10:25;98205.41;;;12.22;69.01
46756;BME280;32506;52.826;-1.192;2023-03-13T02:12:51;98189.31;;;12.22;69.28
46756;BME280;32506;52.826;-1.192;2023-03-13T02:15:21;98175.66;;;12.24;69.13
46756;BME280;32506;52.826;-1.192;2023-03-13T02:17:49;98174.88;;;12.23;68.49
46756;BME280;32506;52.826;-1.192;2023-03-13T02:20:16;98152.34;;;12.24;68.50
46756;BME280;32506;52.826;-1.192;2023-03-13T02:23:03;98148.59;;;12.25;68.25
46756;BME280;32506;52.826;-1.192;2023-03-13T02:28:35;98149.41;;;12.26;69.17
46756;BME280;32506;52.826;-1.192;2023-03-13T02:31:00;98150.19;;;12.27;68.41
46756;BME280;32506;52.826;-1.192;2023-03-13T02:33:38;98128.75;;;12.27;68.28
46756;BME280;32506;52.826;-1.192;2023-03-13T02:36:04;98149.13;;;12.28;68.80
46756;BME280;32506;52.826;-1.192;2023-03-13T02:38:43;98139.19;;;12.28;68.67
46756;BME280;32506;52.826;-1.192;2023-03-13T02:41:10;98125.81;;;12.28;68.38
46756;BME280;32506;52.826;-1.192;2023-03-13T02:43:37;98125.50;;;12.30;68.61
46756;BME280;32506;52.826;-1.192;2023-03-13T02:46:09;98117.47;;;12.30;68.53
46756;BME280;32506;52.826;-1.192;2023-03-13T02:48:40;98101.13;;;12.31;68.60
46756;BME280;32506;52.826;-1.192;2023-03-13T02:51:15;98109.97;;;12.32;68.39
46756;BME280;32506;52.826;-1.192;2023-03-13T02:53:42;98094.69;;;12.32;68.46
46756;BME280;32506;52.826;-1.192;2023-03-13T02:56:11;98077.84;;;12.32;68.46
46756;BME280;32506;52.826;-1.192;2023-03-13T02:58:38;98112.34;;;12.33;68.55
46756;BME280;32506;52.826;-1.192;2023-03-13T03:01:04;98090.66;;;12.35;68.40
46756;BME280;32506;52.826;-1.192;2023-03-13T03:03:33;98069.22;;;12.35;68.08
46756;BME280;32506;52.826;-1.192;2023-03-13T03:06:00;98074.28;;;12.36;68.58
46756;BME280;32506;52.826;-1.192;2023-03-13T03:08:25;98061.72;;;12.37;68.54
46756;BME280;32506;52.826;-1.192;2023-03-13T03:10:51;98062.50;;;12.37;68.61
46756;BME280;32506;52.826;-1.192;2023-03-13T03:13:16;98071.06;;;12.39;68.77
46756;BME280;32506;52.826;-1.192;2023-03-13T03:15:41;98058.75;;;12.38;68.61
46756;BME280;32506;52.826;-1.192;2023-03-13T03:18:07;98057.66;;;12.39;68.73
46756;BME280;32506;52.826;-1.192;2023-03-13T03:20:32;98075.59;;;12.39;68.70
46756;BME280;32506;52.826;-1.192;2023-03-13T03:22:58;98060.06;;;12.41;68.55
46756;BME280;32506;52.826;-1.192;2023-03-13T03:25:23;98049.34;;;12.41;69.07
46756;BME280;32506;52.826;-1.192;2023-03-13T03:27:49;98052.81;;;12.41;68.73
46756;BME280;32506;52.826;-1.192;2023-03-13T03:30:14;98064.03;;;12.44;68.60
46756;BME280;32506;52.826;-1.192;2023-03-13T03:32:40;98049.84;;;12.43;68.40
46756;BME280;32506;52.826;-1.192;2023-03-13T03:35:05;98046.06;;;12.44;68.36
46756;BME280;32506;52.826;-1.192;2023-03-13T03:37:31;98045.78;;;12.46;68.41
46756;BME280;32506;52.826;-1.192;2023-03-13T03:39:56;98041.25;;;12.46;67.86
46756;BME280;32506;52.826;-1.192;2023-03-13T03:42:22;98038.28;;;12.48;67.69
46756;BME280;32506;52.826;-1.192;2023-03-13T03:44:47;98052.44;;;12.48;67.96
46756;BME280;32506;52.826;-1.192;2023-03-13T03:47:13;98027.75;;;12.51;67.91
46756;BME280;32506;52.826;-1.192;2023-03-13T03:49:39;98028.56;;;12.52;67.88
46756;BME280;32506;52.826;-1.192;2023-03-13T03:52:05;98028.28;;;12.53;68.02
46756;BME280;32506;52.826;-1.192;2023-03-13T03:54:30;98023.72;;;12.54;67.82
46756;BME280;32506;52.826;-1.192;2023-03-13T03:56:56;98034.44;;;12.54;67.97
46756;BME280;32506;52.826;-1.192;2023-03-13T03:59:21;98010.84;;;12.56;68.48
46756;BME280;32506;52.826;-1.192;2023-03-13T04:01:47;98016.97;;;12.56;68.22
46756;BME280;32506;52.826;-1.192;2023-03-13T04:04:12;98019.66;;;12.56;68.40
46756;BME280;32506;52.826;-1.192;2023-03-13T04:06:38;98018.59;;;12.57;68.53
46756;BME280;32506;52.826;-1.192;2023-03-13T04:09:03;97996.06;;;12.58;68.42
46756;BME280;32506;52.826;-1.192;2023-03-13T04:11:29;97981.06;;;12.57;68.57
46756;BME280;32506;52.826;-1.192;2023-03-13T04:13:54;97989.91;;;12.58;68.52
46756;BME280;32506;52.826;-1.192;2023-03-13T04:16:20;97976.50;;;12.58;68.53
46756;BME280;32506;52.826;-1.192;2023-03-13T04:18:45;97968.47;;;12.58;68.31
46756;BME280;32506;52.826;-1.192;2023-03-13T04:21:10;97973.03;;;12.57;68.42
46756;BME280;32506;52.826;-1.192;2023-03-13T04:23:36;97967.97;;;12.56;68.46
46756;BME280;32506;52.826;-1.192;2023-03-13T04:26:01;97969.84;;;12.55;68.42
46756;BME280;32506;52.826;-1.192;2023-03-13T04:28:27;97983.22;;;12.55;68.30
46756;BME280;32506;52.826;-1.192;2023-03-13T04:30:53;97974.41;;;12.55;68.39
46756;BME280;32506;52.826;-1.192;2023-03-13T04:33:22;97966.66;;;12.53;67.99
46756;BME280;32506;52.826;-1.192;2023-03-13T04:35:48;97947.09;;;12.53;68.09
46756;BME280;32506;52.826;-1.192;2023-03-13T04:38:13;97943.63;;;12.52;67.98
46756;BME280;32506;52.826;-1.192;2023-03-13T04:40:38;97960.78;;;12.51;67.96
46756;BME280;32506;52.826;-1.192;2023-03-13T04:43:04;97952.75;;;12.51;67.91
46756;BME280;32506;52.826;-1.192;2023-03-13T04:45:29;97945.81;;;12.50;67.76
46756;BME280;32506;52.826;-1.192;2023-03-13T04:47:55;97941.53;;;12.49;68.04
46756;BME280;32506;52.826;-1.192;2023-03-13T04:50:20;97920.41;;;12.48;67.66
46756;BME280;32506;52.826;-1.192;2023-03-13T04:52:46;97927.63;;;12.47;67.63
46756;BME280;32506;52.826;-1.192;2023-03-13T04:55:11;97933.81;;;12.48;67.56
46756;BME280;32506;52.826;-1.192;2023-03-13T04:57:37;97922.28;;;12.47;67.79
46756;BME280;32506;52.826;-1.192;2023-03-13T05:00:04;97921.47;;;12.47;67.51
46756;BME280;32506;52.826;-1.192;2023-03-13T05:02:32;97919.41;;;12.44;67.32
46756;BME280;32506;52.826;-1.192;2023-03-13T05:04:58;97916.72;;;12.44;67.49
46756;BME280;32506;52.826;-1.192;2023-03-13T05:07:24;97920.47;;;12.42;67.48
46756;BME280;32506;52.826;-1.192;2023-03-13T05:09:49;97925.00;;;12.42;67.17
46756;BME280;32506;52.826;-1.192;2023-03-13T05:12:14;97905.78;;;12.40;67.21
46756;BME280;32506;52.826;-1.192;2023-03-13T05:14:42;97904.19;;;12.39;67.17
46756;BME280;32506;52.826;-1.192;2023-03-13T05:17:07;97900.72;;;12.38;66.97
46756;BME280;32506;52.826;-1.192;2023-03-13T05:19:35;97901.78;;;12.37;67.01
46756;BME280;32506;52.826;-1.192;2023-03-13T05:22:00;97918.94;;;12.36;66.96
46756;BME280;32506;52.826;-1.192;2023-03-13T05:24:26;97908.53;;;12.35;66.57
46756;BME280;32506;52.826;-1.192;2023-03-13T05:26:51;97900.00;;;12.33;66.37
46756;BME280;32506;52.826;-1.192;2023-03-13T05:29:17;97904.53;;;12.32;66.50
46756;BME280;32506;52.826;-1.192;2023-03-13T05:31:42;97897.59;;;12.31;66.45
46756;BME280;32506;52.826;-1.192;2023-03-13T05:34:07;97886.38;;;12.29;66.50
46756;BME280;32506;52.826;-1.192;2023-03-13T05:36:33;97883.69;;;12.29;66.21
46756;BME280;32506;52.826;-1.192;2023-03-13T05:38:58;97870.59;;;12.28;66.16
46756;BME280;32506;52.826;-1.192;2023-03-13T05:41:24;97866.34;;;12.27;66.08
46756;BME280;32506;52.826;-1.192;2023-03-13T05:43:49;97860.47;;;12.24;66.10
46756;BME280;32506;52.826;-1.192;2023-03-13T05:46:15;97860.75;;;12.23;65.97
46756;BME280;32506;52.826;-1.192;2023-03-13T05:48:40;97854.59;;;12.22;65.87
46756;BME280;32506;52.826;-1.192;2023-03-13T05:51:05;97853.00;;;12.21;65.62
46756;BME280;32506;52.826;-1.192;2023-03-13T05:53:31;97850.63;;;12.20;65.91
46756;BME280;32506;52.826;-1.192;2023-03-13T05:55:56;97856.28;;;12.18;65.49
46756;BME280;32506;52.826;-1.192;2023-03-13T05:58:22;97858.13;;;12.18;65.66
46756;BME280;32506;52.826;-1.192;2023-03-13T06:00:47;97863.00;;;12.16;65.46
46756;BME280;32506;52.826;-1.192;2023-03-13T06:03:13;97845.34;;;12.15;65.52
46756;BME280;32506;52.826;-1.192;2023-03-13T06:05:38;97842.97;;;12.13;65.54
46756;BME280;32506;52.826;-1.192;2023-03-13T06:08:04;97839.75;;;12.11;65.28
46756;BME280;32506;52.826;-1.192;2023-03-13T06:10:30;97838.97;;;12.11;65.24
46756;BME280;32506;52.826;-1.192;2023-03-13T06:12:56;97835.78;;;12.08;65.00
46756;BME280;32506;52.826;-1.192;2023-03-13T06:15:22;97841.44;;;12.07;65.03
46756;BME280;32506;52.826;-1.192;2023-03-13T06:17:48;97823.78;;;12.06;64.80
46756;BME280;32506;52.826;-1.192;2023-03-13T06:20:13;97824.06;;;12.04;65.00
46756;BME280;32506;52.826;-1.192;2023-03-13T06:22:39;97818.22;;;12.02;65.08
46756;BME280;32506;52.826;-1.192;2023-03-13T06:25:05;97822.75;;;12.02;64.65
46756;BME280;32506;52.826;-1.192;2023-03-13T06:27:31;97836.44;;;12.00;64.44
46756;BME280;32506;52.826;-1.192;2023-03-13T06:29:56;97809.97;;;11.99;64.68
46756;BME280;32506;52.826;-1.192;2023-03-13T06:32:22;97819.06;;;11.98;64.78
46756;BME280;32506;52.826;-1.192;2023-03-13T06:34:47;97820.47;;;11.95;64.78
46756;BME280;32506;52.826;-1.192;2023-03-13T06:37:13;97806.28;;;11.95;64.90
46756;BME280;32506;52.826;-1.192;2023-03-13T06:39:38;97818.84;;;11.94;64.71
46756;BME280;32506;52.826;-1.192;2023-03-13T06:42:04;97825.28;;;11.93;64.66
46756;BME280;32506;52.826;-1.192;2023-03-13T06:44:30;97824.75;;;11.91;64.76
46756;BME280;32506;52.826;-1.192;2023-03-13T06:46:55;97830.09;;;11.91;64.95
46756;BME280;32506;52.826;-1.192;2023-03-13T06:49:21;97844.59;;;11.90;64.80
46756;BME280;32506;52.826;-1.192;2023-03-13T06:51:46;97808.97;;;11.89;64.64
46756;BME280;32506;52.826;-1.192;2023-03-13T06:54:11;97833.06;;;11.89;64.95
46756;BME280;32506;52.826;-1.192;2023-03-13T06:56:37;97828.81;;;11.88;64.80
46756;BME280;32506;52.826;-1.192;2023-03-13T06:59:02;97839.53;;;11.88;64.89
46756;BME280;32506;52.826;-1.192;2023-03-13T07:01:28;97852.09;;;11.88;64.60
46756;BME280;32506;52.826;-1.192;2023-03-13T07:03:54;97833.38;;;11.88;64.93
46756;BME280;32506;52.826;-1.192;2023-03-13T07:06:19;97835.25;;;11.87;64.69
46756;BME280;32506;52.826;-1.192;2023-03-13T07:08:45;97843.28;;;11.87;64.81
46756;BME280;32506;52.826;-1.192;2023-03-13T07:11:12;97846.75;;;11.88;64.84
46756;BME280;32506;52.826;-1.192;2023-03-13T07:13:38;97832.88;;;11.86;65.30
46756;BME280;32506;52.826;-1.192;2023-03-13T07:16:07;97830.97;;;11.86;65.47
46756;BME280;32506;52.826;-1.192;2023-03-13T07:18:33;97816.00;;;11.85;65.46
46756;BME280;32506;52.826;-1.192;2023-03-13T07:21:00;97829.69;;;11.84;64.96
46756;BME280;32506;52.826;-1.192;2023-03-13T07:23:27;97825.09;;;11.84;65.08
46756;BME280;32506;52.826;-1.192;2023-03-13T07:25:54;97813.91;;;11.82;65.29
46756;BME280;32506;52.826;-1.192;2023-03-13T07:28:20;97810.44;;;11.82;65.10
46756;BME280;32506;52.826;-1.192;2023-03-13T07:30:46;97813.13;;;11.82;65.09
46756;BME280;32506;52.826;-1.192;2023-03-13T07:33:11;97825.69;;;11.81;65.08
46756;BME280;32506;52.826;-1.192;2023-03-13T07:35:37;97798.94;;;11.81;65.26
46756;BME280;32506;52.826;-1.192;2023-03-13T07:38:02;97846.03;;;11.82;64.89
46756;BME280;32506;52.826;-1.192;2023-03-13T07:40:28;97782.09;;;11.81;65.23
46756;BME280;32506;52.826;-1.192;2023-03-13T07:42:53;97791.19;;;11.80;64.79
46756;BME280;32506;52.826;-1.192;2023-03-13T07:45:19;97791.97;;;11.80;65.09
46756;BME280;32506;52.826;-1.192;2023-03-13T07:47:44;97788.22;;;11.81;64.99
46756;BME280;32506;52.826;-1.192;2023-03-13T07:50:10;97778.59;;;11.80;64.96
46756;BME280;32506;52.826;-1.192;2023-03-13T07:52:35;97769.00;;;11.79;64.69
46756;BME280;32506;52.826;-1.192;2023-03-13T07:55:01;97762.06;;;11.78;64.84
46756;BME280;32506;52.826;-1.192;2023-03-13T07:57:26;97784.53;;;11.77;65.04
46756;BME280;32506;52.826;-1.192;2023-03-13T07:59:51;97774.91;;;11.76;64.90
46756;BME280;32506;52.826;-1.192;2023-03-13T08:02:17;97758.09;;;11.75;65.34
46756;BME280;32506;52.826;-1.192;2023-03-13T08:04:42;97772.53;;;11.74;65.42
46756;BME280;32506;52.826;-1.192;2023-03-13T08:07:09;97780.84;;;11.73;65.13
46756;BME280;32506;52.826;-1.192;2023-03-13T08:09:34;97767.78;;;11.71;65.44
46756;BME280;32506;52.826;-1.192;2023-03-13T08:12:00;97779.56;;;11.70;65.78
46756;BME280;32506;52.826;-1.192;2023-03-13T08:14:25;97789.97;;;11.72;65.71
46756;BME280;32506;52.826;-1.192;2023-03-13T08:16:52;97774.50;;;11.69;65.82
46756;BME280;32506;52.826;-1.192;2023-03-13T08:19:17;97788.94;;;11.68;65.81
46756;BME280;32506;52.826;-1.192;2023-03-13T08:21:43;97796.97;;;11.68;65.76
46756;BME280;32506;52.826;-1.192;2023-03-13T08:24:10;97782.81;;;11.67;65.93
46756;BME280;32506;52.826;-1.192;2023-03-13T08:26:38;97774.25;;;11.65;65.77
46756;BME280;32506;52.826;-1.192;2023-03-13T08:29:10;97770.00;;;11.64;66.35
46756;BME280;32506;52.826;-1.192;2023-03-13T08:31:44;97778.31;;;11.63;66.12
46756;BME280;32506;52.826;-1.192;2023-03-13T08:34:11;97769.50;;;11.62;66.33
46756;BME280;32506;52.826;-1.192;2023-03-13T08:36:37;97790.38;;;11.60;66.52
46756;BME280;32506;52.826;-1.192;2023-03-13T08:39:06;97772.47;;;11.61;66.53
46756;BME280;32506;52.826;-1.192;2023-03-13T08:41:34;97772.75;;;11.59;66.45
46756;BME280;32506;52.826;-1.192;2023-03-13T08:44:05;97784.53;;;11.58;66.09
46756;BME280;32506;52.826;-1.192;2023-03-13T08:46:33;97777.59;;;11.57;66.75
46756;BME280;32506;52.826;-1.192;2023-03-13T08:48:59;97782.16;;;11.56;66.28
46756;BME280;32506;52.826;-1.192;2023-03-13T08:51:26;97783.22;;;11.55;66.29
46756;BME280;32506;52.826;-1.192;2023-03-13T08:53:52;97776.28;;;11.54;66.85
46756;BME280;32506;52.826;-1.192;2023-03-13T08:56:21;97793.94;;;11.55;66.50
46756;BME280;32506;52.826;-1.192;2023-03-13T08:58:54;97773.59;;;11.54;66.42
46756;BME280;32506;52.826;-1.192;2023-03-13T09:01:22;97780.03;;;11.53;66.78
46756;BME280;32506;52.826;-1.192;2023-03-13T09:03:48;97757.06;;;11.52;66.57
46756;BME280;32506;52.826;-1.192;2023-03-13T09:06:14;97762.41;;;11.52;66.78
46756;BME280;32506;52.826;-1.192;2023-03-13T09:08:41;97750.59;;;11.53;66.84
46756;BME280;32506;52.826;-1.192;2023-03-13T09:11:15;97761.59;;;11.52;66.83
46756;BME280;32506;52.826;-1.192;2023-03-13T09:13:43;97761.59;;;11.52;67.32
46756;BME280;32506;52.826;-1.192;2023-03-13T09:16:11;97765.38;;;11.51;66.94
46756;BME280;32506;52.826;-1.192;2023-03-13T09:18:37;97776.88;;;11.51;67.03
46756;BME280;32506;52.826;-1.192;2023-03-13T09:21:14;97761.59;;;11.52;67.40
46756;BME280;32506;52.826;-1.192;2023-03-13T09:23:40;97764.28;;;11.52;67.06
46756;BME280;32506;52.826;-1.192;2023-03-13T09:26:06;97773.09;;;11.52;67.31
46756;BME280;32506;52.826;-1.192;2023-03-13T09:28:32;97745.56;;;11.52;67.40
46756;BME280;32506;52.826;-1.192;2023-03-13T09:31:09;97768.53;;;11.53;67.53
46756;BME280;32506;52.826;-1.192;2023-03-13T09:33:36;97756.78;;;11.54;67.52
46756;BME280;32506;52.826;-1.192;2023-03-13T09:36:02;97734.56;;;11.53;67.40
46756;BME280;32506;52.826;-1.192;2023-03-13T09:38:27;97741.50;;;11.54;67.37
46756;BME280;32506;52.826;-1.192;2023-03-13T09:40:54;97735.88;;;11.56;67.20
46756;BME280;32506;52.826;-1.192;2023-03-13T09:43:39;97759.66;;;11.57;66.63
46756;BME280;32506;52.826;-1.192;2023-03-13T09:48:46;97731.25;;;11.62;66.52
46756;BME280;32506;52.826;-1.192;2023-03-13T09:51:20;97739.50;;;11.65;66.08
46756;BME280;32506;52.826;-1.192;2023-03-13T09:54:02;97746.66;;;11.70;66.01
46756;BME280;32506;52.826;-1.192;2023-03-13T09:56:38;97754.38;;;11.71;66.38
46756;BME280;32506;52.826;-1.192;2023-03-13T09:59:23;97754.88;;;11.73;66.62
46756;BME280;32506;52.826;-1.192;2023-03-13T10:01:52;97748.16;;;11.76;66.76
46756;BME280;32506;52.826;-1.192;2023-03-13T10:04:28;97756.41;;;11.80;67.65
46756;BME280;32506;52.826;-1.192;2023-03-13T10:06:56;97752.94;;;11.79;67.33
46756;BME280;32506;52.826;-1.192;2023-03-13T10:09:27;97754.25;;;11.82;67.55
46756;BME280;32506;52.826;-1.192;2023-03-13T10:19:55;97766.69;;;11.91;67.62
46756;BME280;32506;52.826;-1.192;2023-03-13T10:22:26;97762.94;;;11.92;67.18
46756;BME280;32506;52.826;-1.192;2023-03-13T10:25:03;97763.97;;;11.97;66.85
46756;BME280;32506;52.826;-1.192;2023-03-13T10:27:31;97800.34;;;11.98;66.95
46756;BME280;32506;52.826;-1.192;2023-03-13T10:29:56;97768.72;;;12.00;66.59
46756;BME280;32506;52.826;-1.192;2023-03-13T10:32:21;97762.78;;;12.03;67.30
46756;BME280;32506;52.826;-1.192;2023-03-13T10:34:58;97753.38;;;12.05;67.38
46756;BME280;32506;52.826;-1.192;2023-03-13T10:37:29;97766.47;;;12.07;66.94
46756;BME280;32506;52.826;-1.192;2023-03-13T10:40:11;97769.66;;;12.09;66.96
46756;BME280;32506;52.826;-1.192;2023-03-13T10:42:42;97767.47;;;12.11;67.35
46756;BME280;32506;52.826;-1.192;2023-03-13T10:45:17;97770.38;;;12.15;68.42
46756;BME280;32506;52.826;-1.192;2023-03-13T10:47:53;97775.72;;;12.15;68.85
46756;BME280;32506;52.826;-1.192;2023-03-13T10:50:22;97763.13;;;12.15;68.08
46756;BME280;32506;52.826;-1.192;2023-03-13T10:52:48;97770.91;;;12.17;68.18
46756;BME280;32506;52.826;-1.192;2023-03-13T10:55:23;97782.09;;;12.19;68.20
46756;BME280;32506;52.826;-1.192;2023-03-13T10:57:58;97764.66;;;12.21;68.35
46756;BME280;32506;52.826;-1.192;2023-03-13T11:02:53;97772.91;;;12.25;68.29
46756;BME280;32506;52.826;-1.192;2023-03-13T11:07:48;97765.56;;;12.31;67.52
46756;BME280;32506;52.826;-1.192;2023-03-13T11:10:20;97790.38;;;12.36;67.74
46756;BME280;32506;52.826;-1.192;2023-03-13T11:12:48;97787.63;;;12.41;67.36
46756;BME280;32506;52.826;-1.192;2023-03-13T11:15:19;97783.28;;;12.46;67.52
46756;BME280;32506;52.826;-1.192;2023-03-13T11:17:56;97775.16;;;12.51;67.15
46756;BME280;32506;52.826;-1.192;2023-03-13T11:20:26;97778.06;;;12.54;67.22
46756;BME280;32506;52.826;-1.192;2023-03-13T11:31:23;97804.66;;;12.65;66.87
46756;BME280;32506;52.826;-1.192;2023-03-13T11:33:54;97806.75;;;12.68;67.23
46756;BME280;32506;52.826;-1.192;2023-03-13T11:42:19;97792.97;;;12.74;67.35
46756;BME280;32506;52.826;-1.192;2023-03-13T11:48:02;97810.38;;;12.77;67.41
46756;BME280;32506;52.826;-1.192;2023-03-13T11:50:46;97805.47;;;12.79;66.87
46756;BME280;32506;52.826;-1.192;2023-03-13T11:53:22;97811.63;;;12.80;66.48
46756;BME280;32506;52.826;-1.192;2023-03-13T11:56:21;97803.03;;;12.83;66.54
46756;BME280;32506;52.826;-1.192;2023-03-13T11:59:04;97810.75;;;12.84;66.75
46756;BME280;32506;52.826;-1.192;2023-03-13T12:01:43;97810.75;;;12.84;66.45
46756;BME280;32506;52.826;-1.192;2023-03-13T12:04:32;97812.06;;;12.87;66.72
46756;BME280;32506;52.826;-1.192;2023-03-13T12:07:17;97823.56;;;12.87;66.91
46756;BME280;32506;52.826;-1.192;2023-03-13T12:09:49;97829.75;;;12.88;66.67
46756;BME280;32506;52.826;-1.192;2023-03-13T12:12:40;97813.34;;;12.89;66.34
46756;BME280;32506;52.826;-1.192;2023-03-13T12:15:20;97808.00;;;12.89;66.39
46756;BME280;32506;52.826;-1.192;2023-03-13T12:17:57;97811.16;;;12.91;66.28
46756;BME280;32506;52.826;-1.192;2023-03-13T12:20:28;97811.97;;;12.92;66.60
46756;BME280;32506;52.826;-1.192;2023-03-13T12:25:54;97813.75;;;12.97;66.30
46756;BME280;32506;52.826;-1.192;2023-03-13T12:28:34;97811.28;;;13.00;65.92
46756;BME280;32506;52.826;-1.192;2023-03-13T12:31:18;97806.09;;;13.04;65.97
46756;BME280;32506;52.826;-1.192;2023-03-13T12:36:23;97826.38;;;13.10;66.10
46756;BME280;32506;52.826;-1.192;2023-03-13T12:39:00;97795.19;;;13.14;65.97
46756;BME280;32506;52.826;-1.192;2023-03-13T12:42:16;97794.13;;;13.15;66.07
46756;BME280;32506;52.826;-1.192;2023-03-13T12:44:22;97794.03;;;13.20;66.14
46756;BME280;32506;52.826;-1.192;2023-03-13T12:47:14;97787.44;;;13.26;66.25
46756;BME280;32506;52.826;-1.192;2023-03-13T12:52:46;97773.78;;;13.42;66.50
46756;BME280;32506;52.826;-1.192;2023-03-13T13:00:48;97756.13;;;13.64;66.72
46756;BME280;32506;52.826;-1.192;2023-03-13T13:06:11;97748.34;;;13.76;66.31
46756;BME280;32506;52.826;-1.192;2023-03-13T13:08:38;97747.75;;;13.79;66.29
46756;BME280;32506;52.826;-1.192;2023-03-13T13:16:49;97735.19;;;13.88;65.60
46756;BME280;32506;52.826;-1.192;2023-03-13T13:30:02;97718.59;;;14.09;65.12
46756;BME280;32506;52.826;-1.192;2023-03-13T13:32:39;97717.25;;;14.20;65.20
46756;BME280;32506;52.826;-1.192;2023-03-13T13:37:38;97726.22;;;14.38;65.04
46756;BME280;32506;52.826;-1.192;2023-03-13T13:43:03;97706.25;;;14.62;64.87
46756;BME280;32506;52.826;-1.192;2023-03-13T13:45:31;97699.53;;;14.73;64.77
46756;BME280;32506;52.826;-1.192;2023-03-13T13:48:25;97691.19;;;14.84;64.61
46756;BME280;32506;52.826;-1.192;2023-03-13T13:53:49;97701.53;;;14.99;64.06
46756;BME280;32506;52.826;-1.192;2023-03-13T13:56:46;97704.22;;;15.08;63.71
46756;BME280;32506;52.826;-1.192;2023-03-13T14:01:46;97698.56;;;15.18;63.58
46756;BME280;32506;52.826;-1.192;2023-03-13T14:04:18;97685.28;;;15.22;63.29
46756;BME280;32506;52.826;-1.192;2023-03-13T14:06:50;97677.66;;;15.24;62.42
46756;BME280;32506;52.826;-1.192;2023-03-13T14:09:32;97701.75;;;15.29;62.01
46756;BME280;32506;52.826;-1.192;2023-03-13T14:12:00;97695.75;;;15.32;62.05
46756;BME280;32506;52.826;-1.192;2023-03-13T14:14:25;97690.19;;;15.37;61.76
46756;BME280;32506;52.826;-1.192;2023-03-13T14:16:53;97689.72;;;15.44;61.78
46756;BME280;32506;52.826;-1.192;2023-03-13T14:19:29;97700.03;;;15.51;61.68
46756;BME280;32506;52.826;-1.192;2023-03-13T14:22:00;97699.56;;;15.57;61.15
46756;BME280;32506;52.826;-1.192;2023-03-13T14:24:26;97704.13;;;15.66;61.21